Time;durP1;ratioP1;P1;durP2;ratioP2;P2;SDS_P1;SDS_P2;PMS_P1;PMS_P2;Temp;Humidity;BMP_temperature;BMP_pressure;BME280_temperature;BME280_humidity;BME280_pressure;Samples;Min_cycle;Max_cycle;Signal;HPM_P1;HPM_P2
2022/11/08 00:02:17;;;;;;;11.18;5.10;;;11.80;99.90;;;;;;5050516;28;20481;-57
2022/11/08 00:14:17;;;;;;;7.10;4.00;;;11.90;99.90;;;;;;5061126;28;20044;-56
2022/11/08 00:17:03;;;;;;;7.03;3.95;;;11.90;99.90;;;;;;5063613;28;20035;-58
2022/11/08 00:19:49;;;;;;;10.07;4.60;;;11.90;99.90;;;;;;5067552;28;20280;-57
2022/11/08 00:22:35;;;;;;;9.48;4.00;;;11.80;99.90;;;;;;5067347;28;20037;-57
2022/11/08 00:25:21;;;;;;;7.30;4.45;;;11.80;99.90;;;;;;5069503;28;20033;-57
2022/11/08 00:28:07;;;;;;;9.55;4.00;;;11.80;99.90;;;;;;5034565;28;20025;-57
2022/11/08 00:30:53;;;;;;;13.75;3.85;;;11.80;99.90;;;;;;5050900;28;20021;-60
2022/11/08 00:33:39;;;;;;;11.32;3.80;;;11.70;99.90;;;;;;5030525;28;20113;-55
2022/11/08 00:36:25;;;;;;;8.27;4.22;;;11.70;99.90;;;;;;5041757;28;20082;-58
2022/11/08 00:39:11;;;;;;;11.70;4.63;;;11.70;99.90;;;;;;5035284;28;20034;-57
2022/11/08 00:41:59;;;;;;;7.40;4.10;;;11.60;99.90;;;;;;5044934;28;20037;-55
2022/11/08 00:44:45;;;;;;;8.10;4.05;;;11.60;99.90;;;;;;5033964;28;20029;-59
2022/11/08 00:47:34;;;;;;;8.63;4.18;;;11.60;99.90;;;;;;5047762;28;20791;-57
2022/11/08 00:50:20;;;;;;;7.93;4.25;;;11.60;99.90;;;;;;5034551;28;20025;-57
2022/11/08 00:53:06;;;;;;;11.40;4.22;;;11.50;99.90;;;;;;5033701;28;20025;-58
2022/11/08 00:56:00;;;;;;;7.43;4.07;;;11.50;99.90;;;;;;5048716;28;20402;-57
2022/11/08 00:58:46;;;;;;;8.80;4.20;;;11.60;99.90;;;;;;5048005;28;20438;-57
2022/11/08 01:01:32;;;;;;;6.85;4.53;;;11.60;99.90;;;;;;5039713;28;20525;-58
2022/11/08 01:04:18;;;;;;;10.73;4.47;;;11.60;99.90;;;;;;5013986;28;20076;-58
2022/11/08 01:07:04;;;;;;;9.20;4.38;;;11.50;99.90;;;;;;5029208;28;20025;-58
2022/11/08 01:09:50;;;;;;;9.93;4.13;;;11.50;99.90;;;;;;5048051;28;20381;-59
2022/11/08 01:12:39;;;;;;;8.88;4.40;;;11.60;99.90;;;;;;5050673;28;20397;-58
2022/11/08 01:15:25;;;;;;;9.50;4.95;;;11.60;99.90;;;;;;5043622;28;20397;-58
2022/11/08 01:18:12;;;;;;;15.32;4.60;;;11.60;99.90;;;;;;5051103;28;20029;-60
2022/11/08 01:20:59;;;;;;;11.07;5.15;;;11.60;99.90;;;;;;5045686;28;20040;-60
2022/11/08 01:23:45;;;;;;;14.20;5.68;;;11.60;99.90;;;;;;5037909;28;20608;-63
2022/11/08 01:26:31;;;;;;;12.23;5.00;;;11.60;99.90;;;;;;5035668;28;20090;-59
2022/11/08 01:29:17;;;;;;;11.32;5.53;;;11.50;99.90;;;;;;5051741;28;20024;-60
2022/11/08 01:32:03;;;;;;;13.55;5.07;;;11.50;99.90;;;;;;5051156;28;20119;-60
2022/11/08 01:34:49;;;;;;;11.45;3.97;;;11.50;99.90;;;;;;5052281;28;20500;-61
2022/11/08 01:37:35;;;;;;;9.65;4.10;;;11.40;99.90;;;;;;5050675;28;20167;-60
2022/11/08 01:40:21;;;;;;;9.15;4.30;;;11.50;99.90;;;;;;5050535;28;20029;-61
2022/11/08 01:43:41;;;;;;;9.90;4.00;;;11.50;99.90;;;;;;5036368;28;20056;-62
2022/11/08 01:46:34;;;;;;;7.43;4.13;;;11.50;99.90;;;;;;5036440;28;20429;-61
2022/11/08 01:49:43;;;;;;;8.68;4.60;;;11.50;99.90;;;;;;5050411;28;20118;-60
2022/11/08 01:52:36;;;;;;;9.95;4.43;;;11.50;99.90;;;;;;5031775;28;20103;-61
2022/11/08 01:55:34;;;;;;;8.07;4.18;;;11.50;99.90;;;;;;5041335;28;20029;-61
2022/11/08 01:58:24;;;;;;;6.75;4.05;;;11.40;99.90;;;;;;5043676;28;20041;-60
2022/11/08 02:01:11;;;;;;;7.55;4.18;;;11.30;99.90;;;;;;5048449;28;20110;-60
2022/11/08 02:03:58;;;;;;;8.43;4.68;;;11.40;99.90;;;;;;5044387;28;20025;-60
2022/11/08 02:06:44;;;;;;;8.40;4.20;;;11.30;99.90;;;;;;5045437;28;20069;-61
2022/11/08 02:09:31;;;;;;;10.10;4.80;;;11.30;99.90;;;;;;5045177;28;20507;-59
2022/11/08 02:12:20;;;;;;;8.70;4.25;;;11.30;99.90;;;;;;5035467;28;20032;-60
2022/11/08 02:15:07;;;;;;;7.55;4.20;;;11.30;99.90;;;;;;5022805;28;20021;-61
2022/11/08 02:17:53;;;;;;;9.27;4.53;;;11.30;99.90;;;;;;5036193;28;20104;-61
2022/11/08 02:20:50;;;;;;;8.45;4.30;;;11.30;99.90;;;;;;5035126;28;20055;-62
2022/11/08 02:23:53;;;;;;;7.85;4.03;;;11.30;99.90;;;;;;5030186;28;20440;-60
2022/11/08 02:26:39;;;;;;;8.70;4.15;;;11.30;99.90;;;;;;5038308;28;20075;-60
2022/11/08 02:29:31;;;;;;;6.10;3.75;;;11.30;99.90;;;;;;5049563;28;20024;-61
2022/11/08 02:32:17;;;;;;;8.07;4.38;;;11.30;99.90;;;;;;5050056;28;20036;-59
2022/11/08 02:35:08;;;;;;;6.00;4.03;;;11.30;99.90;;;;;;5049976;28;20021;-60
2022/11/08 02:37:54;;;;;;;9.52;4.28;;;11.20;99.90;;;;;;5033938;28;20036;-61
2022/11/08 02:40:48;;;;;;;7.95;4.45;;;11.20;99.90;;;;;;5029828;28;20037;-60
2022/11/08 02:43:34;;;;;;;7.07;4.45;;;11.20;99.90;;;;;;5033156;28;20488;-60
2022/11/08 02:46:20;;;;;;;8.20;4.88;;;11.20;99.90;;;;;;5036508;28;20047;-62
2022/11/08 02:49:05;;;;;;;10.77;4.90;;;11.20;99.90;;;;;;5049348;28;20025;-60
2022/11/08 02:51:52;;;;;;;11.45;4.80;;;11.20;99.90;;;;;;5049952;28;20072;-60
2022/11/08 02:54:38;;;;;;;6.43;3.97;;;11.20;99.90;;;;;;5049396;28;20087;-55
2022/11/08 02:57:24;;;;;;;11.15;4.53;;;11.20;99.90;;;;;;5034929;28;20021;-52
2022/11/08 03:00:11;;;;;;;6.53;3.75;;;11.10;99.90;;;;;;5050327;28;20039;-53
2022/11/08 03:02:57;;;;;;;8.18;4.57;;;11.00;99.90;;;;;;5050065;28;20386;-52
2022/11/08 03:05:43;;;;;;;7.57;4.55;;;11.00;99.90;;;;;;5049531;28;20032;-55
2022/11/08 03:08:29;;;;;;;8.35;5.05;;;11.00;99.90;;;;;;5049533;28;20029;-51
2022/11/08 03:11:15;;;;;;;10.50;5.00;;;11.00;99.90;;;;;;5049541;28;20032;-55
2022/11/08 03:14:01;;;;;;;9.45;5.70;;;10.90;99.90;;;;;;5030457;28;20096;-55
2022/11/08 03:16:47;;;;;;;6.68;4.30;;;11.00;99.90;;;;;;5032390;28;20497;-54
2022/11/08 03:19:33;;;;;;;8.30;4.68;;;11.00;99.90;;;;;;5048994;28;20621;-54
2022/11/08 03:22:18;;;;;;;10.20;5.22;;;11.00;99.90;;;;;;5049369;28;20036;-61
2022/11/08 03:25:05;;;;;;;11.90;4.80;;;10.90;99.90;;;;;;5034852;28;20492;-56
2022/11/08 03:27:51;;;;;;;14.10;5.05;;;11.00;99.90;;;;;;5048879;28;20037;-55
2022/11/08 03:30:37;;;;;;;7.57;4.70;;;11.00;99.90;;;;;;5048825;28;20025;-57
2022/11/08 03:33:23;;;;;;;11.98;5.07;;;11.00;99.90;;;;;;5049185;28;20041;-55
2022/11/08 03:36:09;;;;;;;8.13;5.07;;;10.90;99.90;;;;;;5048350;28;20064;-56
2022/11/08 03:38:55;;;;;;;9.10;4.50;;;10.90;99.90;;;;;;5048525;28;20155;-59
2022/11/08 03:41:41;;;;;;;8.70;4.82;;;11.00;99.90;;;;;;5028746;28;20025;-57
2022/11/08 03:44:27;;;;;;;6.80;4.32;;;11.00;99.90;;;;;;5038157;28;20029;-60
2022/11/08 03:47:13;;;;;;;9.10;5.30;;;11.00;99.90;;;;;;5049138;28;20033;-60
2022/11/08 03:49:58;;;;;;;8.55;5.13;;;11.10;99.90;;;;;;5048491;28;20029;-57
2022/11/08 03:52:53;;;;;;;12.70;6.00;;;11.00;99.90;;;;;;5034799;28;20031;-55
2022/11/08 03:55:39;;;;;;;14.68;7.13;;;11.00;99.90;;;;;;5049094;28;20457;-58
2022/11/08 03:58:25;;;;;;;13.77;5.93;;;11.00;99.90;;;;;;5048433;28;20029;-57
2022/11/08 04:01:11;;;;;;;9.48;5.45;;;11.00;99.90;;;;;;5015050;28;20030;-57
2022/11/08 04:03:57;;;;;;;14.68;5.28;;;10.90;99.90;;;;;;5029483;28;20513;-58
2022/11/08 04:06:43;;;;;;;9.07;5.75;;;11.00;99.90;;;;;;5034652;28;20036;-59
2022/11/08 04:09:30;;;;;;;9.50;5.93;;;11.00;99.90;;;;;;5048722;28;20119;-59
2022/11/08 04:15:21;;;;;;;12.98;6.10;;;11.00;99.90;;;;;;5048963;28;20104;-57
2022/11/08 04:21:20;;;;;;;9.32;5.65;;;10.90;99.90;;;;;;5049046;28;20037;-55
2022/11/08 04:24:06;;;;;;;15.45;5.95;;;10.90;99.90;;;;;;5035082;28;20025;-58
2022/11/08 04:26:52;;;;;;;11.80;5.90;;;10.90;99.90;;;;;;5047940;28;20041;-59
2022/11/08 04:29:38;;;;;;;9.90;6.10;;;10.80;99.90;;;;;;5048308;28;20029;-59
2022/11/08 04:32:24;;;;;;;10.85;6.22;;;10.80;99.90;;;;;;5048680;28;20048;-59
2022/11/08 04:35:10;;;;;;;12.40;6.32;;;10.80;99.90;;;;;;5011866;28;20389;-58
2022/11/08 04:38:01;;;;;;;23.33;8.73;;;10.70;99.90;;;;;;5047625;28;20021;-59
2022/11/08 04:40:47;;;;;;;10.63;6.80;;;10.70;99.90;;;;;;5034133;28;20024;-61
2022/11/08 04:43:33;;;;;;;12.25;6.00;;;10.70;99.90;;;;;;5048448;28;20060;-59
2022/11/08 04:46:24;;;;;;;10.73;5.45;;;10.70;99.90;;;;;;5050136;28;20339;-58
2022/11/08 04:49:10;;;;;;;10.93;6.30;;;10.60;99.90;;;;;;5039196;28;20033;-59
2022/11/08 04:51:56;;;;;;;9.30;5.10;;;10.60;99.90;;;;;;5051629;28;20029;-60
2022/11/08 04:54:44;;;;;;;10.68;5.68;;;10.60;99.90;;;;;;5051890;28;20230;-59
2022/11/08 04:57:30;;;;;;;11.95;5.53;;;10.50;99.90;;;;;;5051768;28;20496;-61
2022/11/08 05:00:16;;;;;;;10.27;5.80;;;10.50;99.90;;;;;;5051765;28;20056;-59
2022/11/08 05:03:02;;;;;;;10.02;5.97;;;10.50;99.90;;;;;;5052561;28;20107;-58
2022/11/08 05:05:48;;;;;;;8.82;5.97;;;10.50;99.90;;;;;;5037210;28;20033;-59
2022/11/08 05:08:34;;;;;;;11.13;6.28;;;10.60;99.90;;;;;;5032818;28;20071;-59
2022/11/08 05:11:22;;;;;;;16.77;7.03;;;10.60;99.90;;;;;;5035820;28;20025;-60
2022/11/08 05:14:08;;;;;;;10.40;6.30;;;10.50;99.90;;;;;;5036566;28;20156;-59
2022/11/08 05:16:54;;;;;;;16.33;9.65;;;10.50;99.90;;;;;;5041663;28;20032;-57
2022/11/08 05:25:49;;;;;;;12.60;7.07;;;10.50;99.90;;;;;;5032430;28;20068;-56
2022/11/08 05:28:35;;;;;;;11.07;7.28;;;10.50;99.90;;;;;;5032590;28;20032;-59
2022/11/08 05:31:21;;;;;;;14.25;9.52;;;10.50;99.90;;;;;;5033296;28;20038;-57
2022/11/08 05:34:07;;;;;;;16.33;9.50;;;10.40;99.90;;;;;;5051949;28;20029;-58
2022/11/08 05:36:53;;;;;;;17.13;9.82;;;10.40;99.90;;;;;;5033253;28;20033;-60
2022/11/08 05:39:39;;;;;;;15.25;7.97;;;10.40;99.90;;;;;;5034942;28;20025;-58
2022/11/08 05:42:25;;;;;;;14.70;8.43;;;10.40;99.90;;;;;;5051567;28;20095;-60
2022/11/08 05:45:11;;;;;;;12.85;7.97;;;10.30;99.90;;;;;;5046674;28;20040;-60
2022/11/08 05:48:02;;;;;;;18.92;8.60;;;10.30;99.90;;;;;;5051459;28;20053;-59
2022/11/08 05:50:48;;;;;;;12.85;7.75;;;10.30;99.90;;;;;;5051153;28;20520;-57
2022/11/08 05:53:34;;;;;;;13.77;8.82;;;10.20;99.90;;;;;;5052639;28;20021;-58
2022/11/08 05:56:20;;;;;;;13.00;8.68;;;10.30;99.90;;;;;;5052646;28;20113;-58
2022/11/08 05:59:06;;;;;;;17.40;9.90;;;10.20;99.90;;;;;;5051442;28;20033;-58
2022/11/08 06:01:52;;;;;;;12.77;9.07;;;10.10;99.90;;;;;;5049422;28;20044;-62
2022/11/08 06:04:38;;;;;;;15.38;8.82;;;10.10;99.90;;;;;;5036935;28;20029;-56
2022/11/08 06:07:24;;;;;;;13.85;8.77;;;10.10;99.90;;;;;;5034153;28;20104;-59
2022/11/08 06:10:10;;;;;;;26.52;13.38;;;10.10;99.90;;;;;;5051645;28;20025;-56
2022/11/08 06:13:02;;;;;;;14.38;8.98;;;10.10;99.90;;;;;;5047727;28;20029;-59
2022/11/08 06:15:48;;;;;;;17.02;8.75;;;10.10;99.90;;;;;;5052023;28;20124;-60
2022/11/08 06:18:35;;;;;;;13.13;8.40;;;10.10;99.90;;;;;;5050126;28;20545;-59
2022/11/08 06:21:21;;;;;;;13.75;8.27;;;10.10;99.90;;;;;;5049984;28;20029;-58
2022/11/08 06:24:07;;;;;;;12.27;8.25;;;10.10;99.90;;;;;;5050880;28;20596;-60
2022/11/08 06:26:53;;;;;;;13.93;8.00;;;10.10;99.90;;;;;;5050011;28;20078;-62
2022/11/08 06:29:41;;;;;;;12.30;8.40;;;10.20;99.90;;;;;;5051325;28;20037;-59
2022/11/08 06:32:27;;;;;;;37.15;16.98;;;10.20;99.90;;;;;;5050305;28;20021;-60
2022/11/08 06:35:13;;;;;;;32.38;18.42;;;10.20;99.90;;;;;;5049736;28;20789;-61
2022/11/08 06:38:03;;;;;;;31.17;10.25;;;10.30;99.90;;;;;;5049530;28;20558;-61
2022/11/08 06:40:49;;;;;;;39.13;10.48;;;10.30;99.90;;;;;;5030867;28;20167;-60
2022/11/08 06:43:35;;;;;;;25.05;8.30;;;10.30;99.90;;;;;;5045660;28;20517;-62
2022/11/08 06:46:21;;;;;;;25.30;8.88;;;10.30;99.90;;;;;;5040915;28;20041;-60
2022/11/08 06:49:07;;;;;;;29.15;9.25;;;10.30;99.90;;;;;;5045279;28;20067;-58
2022/11/08 06:51:55;;;;;;;25.77;8.38;;;10.40;99.90;;;;;;5035405;28;20056;-63
2022/11/08 06:54:41;;;;;;;31.75;9.77;;;10.40;99.90;;;;;;5049738;28;20025;-60
2022/11/08 06:57:27;;;;;;;22.33;9.95;;;10.40;99.90;;;;;;5045277;28;20029;-60
2022/11/08 07:00:16;;;;;;;23.38;9.82;;;10.50;99.90;;;;;;5034199;28;20535;-60
2022/11/08 07:03:02;;;;;;;27.02;10.13;;;10.50;99.90;;;;;;5050761;28;20029;-59
2022/11/08 07:05:48;;;;;;;32.65;15.05;;;10.60;99.90;;;;;;5035199;28;20128;-62
2022/11/08 07:08:34;;;;;;;13.55;8.30;;;10.50;99.90;;;;;;5035034;28;20021;-61
2022/11/08 07:11:20;;;;;;;14.15;7.68;;;10.60;99.90;;;;;;5049810;28;20021;-58
2022/11/08 07:14:06;;;;;;;13.52;7.60;;;10.60;99.90;;;;;;5047992;28;20539;-64
2022/11/08 07:16:52;;;;;;;24.52;9.02;;;10.70;99.90;;;;;;5037755;28;20123;-61
2022/11/08 07:19:38;;;;;;;22.25;7.72;;;10.70;99.90;;;;;;5036107;28;20040;-60
2022/11/08 07:22:24;;;;;;;23.10;9.00;;;10.70;99.90;;;;;;5038799;28;20037;-58
2022/11/08 07:25:10;;;;;;;29.17;9.52;;;10.80;99.90;;;;;;5028058;28;20068;-61
2022/11/08 07:27:58;;;;;;;26.52;9.23;;;10.80;99.90;;;;;;5049367;28;20029;-62
2022/11/08 07:30:46;;;;;;;26.08;9.18;;;10.90;99.90;;;;;;5048992;28;20057;-59
2022/11/08 07:33:32;;;;;;;17.67;8.40;;;10.90;99.90;;;;;;5048206;28;20033;-59
2022/11/08 07:36:18;;;;;;;17.10;9.80;;;10.90;99.90;;;;;;5016064;28;20034;-60
2022/11/08 07:39:04;;;;;;;21.45;10.20;;;11.00;99.90;;;;;;5040274;28;20500;-59
2022/11/08 07:41:50;;;;;;;40.38;17.25;;;11.10;99.90;;;;;;5036851;28;20109;-58
2022/11/08 07:44:36;;;;;;;29.20;11.75;;;11.10;99.90;;;;;;5034238;28;20113;-58
2022/11/08 07:47:22;;;;;;;59.38;16.17;;;11.10;99.90;;;;;;5046467;28;20025;-59
2022/11/08 07:50:09;;;;;;;45.63;16.85;;;11.10;99.90;;;;;;5049070;28;20033;-62
2022/11/08 07:52:55;;;;;;;40.70;12.57;;;11.20;99.90;;;;;;5048925;28;20108;-60
2022/11/08 07:55:41;;;;;;;21.48;9.05;;;11.20;99.90;;;;;;5034485;28;20339;-59
2022/11/08 07:58:27;;;;;;;15.55;7.55;;;11.30;99.90;;;;;;5038235;28;20036;-60
2022/11/08 08:01:13;;;;;;;12.65;7.18;;;11.30;99.90;;;;;;5026783;28;20497;-61
2022/11/08 08:03:59;;;;;;;17.77;7.63;;;11.30;99.90;;;;;;5041950;28;20501;-58
2022/11/08 08:06:45;;;;;;;20.40;7.75;;;11.30;99.90;;;;;;5038799;28;20497;-60
2022/11/08 08:09:33;;;;;;;15.57;7.90;;;11.40;99.90;;;;;;5041794;28;20051;-58
2022/11/08 08:12:19;;;;;;;15.60;7.60;;;11.40;99.90;;;;;;5039668;28;20071;-60
2022/11/08 08:15:05;;;;;;;14.43;10.20;;;11.40;99.90;;;;;;5048159;28;20080;-59
2022/11/08 08:17:51;;;;;;;13.52;8.40;;;11.50;99.90;;;;;;5048886;28;20091;-60
2022/11/08 08:20:38;;;;;;;15.07;7.50;;;11.60;99.90;;;;;;5029463;28;20037;-59
2022/11/08 08:23:24;;;;;;;13.32;7.25;;;11.60;99.90;;;;;;5029469;28;20033;-59
2022/11/08 08:26:10;;;;;;;17.38;7.68;;;11.70;99.90;;;;;;5031972;28;20083;-59
2022/11/08 08:28:56;;;;;;;15.65;7.72;;;11.80;99.90;;;;;;5039831;28;20345;-59
2022/11/08 08:31:42;;;;;;;16.27;7.57;;;11.90;99.90;;;;;;5042426;28;20523;-60
2022/11/08 08:34:28;;;;;;;11.52;6.88;;;12.00;99.90;;;;;;5038357;28;20521;-54
2022/11/08 08:37:16;;;;;;;13.32;6.82;;;12.00;99.90;;;;;;5039552;28;20052;-55
2022/11/08 08:40:02;;;;;;;12.05;6.70;;;12.00;99.90;;;;;;5047681;28;20412;-58
2022/11/08 08:42:48;;;;;;;18.45;9.93;;;12.00;99.90;;;;;;5043880;28;20071;-58
2022/11/08 08:45:35;;;;;;;17.65;7.90;;;12.00;99.90;;;;;;5041929;28;20438;-59
2022/11/08 08:48:20;;;;;;;13.52;6.80;;;12.10;99.90;;;;;;5036173;28;20049;-53
2022/11/08 08:51:06;;;;;;;11.82;5.85;;;12.20;99.90;;;;;;5014894;28;20059;-59
2022/11/08 08:53:52;;;;;;;7.95;5.25;;;12.20;99.90;;;;;;5027522;28;20064;-57
2022/11/08 08:56:38;;;;;;;14.48;5.70;;;12.30;99.90;;;;;;5027257;28;20038;-62
2022/11/08 08:59:26;;;;;;;18.60;7.50;;;12.30;99.90;;;;;;5017336;28;20523;-60
2022/11/08 09:02:13;;;;;;;13.60;6.63;;;12.50;99.90;;;;;;5036006;28;20037;-57
2022/11/08 09:04:59;;;;;;;14.38;6.85;;;12.60;99.90;;;;;;5043128;28;20017;-62
2022/11/08 09:07:45;;;;;;;14.48;6.00;;;12.70;99.90;;;;;;5045213;28;20034;-60
2022/11/08 09:10:30;;;;;;;13.20;6.03;;;12.80;99.90;;;;;;5036726;28;20021;-56
2022/11/08 09:13:16;;;;;;;13.90;6.22;;;12.90;99.90;;;;;;5043067;28;20101;-60
2022/11/08 09:16:02;;;;;;;8.05;5.38;;;12.90;99.90;;;;;;5032762;28;20098;-56
2022/11/08 09:18:48;;;;;;;9.95;5.68;;;12.90;99.90;;;;;;5045323;28;20033;-54
2022/11/08 09:21:34;;;;;;;14.55;5.28;;;12.90;99.90;;;;;;5046595;28;20025;-57
2022/11/08 09:24:20;;;;;;;6.43;4.75;;;12.80;99.90;;;;;;5044656;28;20371;-56
2022/11/08 09:27:06;;;;;;;9.80;5.18;;;12.80;99.90;;;;;;5024609;28;20052;-58
2022/11/08 09:29:52;;;;;;;8.55;4.97;;;12.80;99.90;;;;;;5025506;28;20036;-61
2022/11/08 09:32:38;;;;;;;8.38;4.75;;;12.80;99.90;;;;;;5034438;28;20037;-57
2022/11/08 09:35:24;;;;;;;10.52;5.28;;;12.90;99.90;;;;;;5050972;28;20090;-53
2022/11/08 09:38:10;;;;;;;8.57;5.32;;;13.00;99.90;;;;;;5049648;28;20116;-55
2022/11/08 09:40:56;;;;;;;13.77;5.65;;;13.00;99.90;;;;;;5050591;28;20021;-61
2022/11/08 09:44:06;;;;;;;11.32;5.10;;;13.00;99.90;;;;;;5050276;28;20074;-55
2022/11/08 09:46:56;;;;;;;20.60;5.35;;;13.10;99.90;;;;;;5050692;28;20060;-60
2022/11/08 09:49:56;;;;;;;18.83;5.03;;;13.10;99.90;;;;;;5050819;28;20393;-54
2022/11/08 09:52:47;;;;;;;13.98;5.82;;;13.20;99.90;;;;;;5038089;28;20044;-58
2022/11/08 09:55:41;;;;;;;13.43;5.40;;;13.40;99.90;;;;;;5051253;28;20528;-58
2022/11/08 09:59:18;;;;;;;12.50;6.07;;;13.40;99.90;;;;;;5036854;28;20024;-59
2022/11/08 10:02:32;;;;;;;11.85;5.50;;;13.40;99.90;;;;;;5051289;28;20691;-59
2022/11/08 10:05:18;;;;;;;11.50;5.40;;;13.50;99.90;;;;;;5050399;28;20048;-53
2022/11/08 10:08:26;;;;;;;11.45;5.30;;;13.50;99.90;;;;;;5049976;28;20043;-55
2022/11/08 10:11:48;;;;;;;16.30;5.55;;;13.50;99.90;;;;;;5052191;28;20025;-51
2022/11/08 10:14:58;;;;;;;13.65;4.60;;;13.60;99.90;;;;;;5033622;28;20043;-51
2022/11/08 10:18:09;;;;;;;8.45;4.20;;;14.10;99.90;;;;;;5049712;28;20405;-50
2022/11/08 10:21:17;;;;;;;14.38;5.70;;;14.50;99.90;;;;;;5036810;28;20052;-52
2022/11/08 10:24:14;;;;;;;9.32;4.65;;;14.80;99.90;;;;;;5050751;28;20029;-53
2022/11/08 10:27:02;;;;;;;14.45;5.22;;;15.00;99.90;;;;;;5051902;28;20086;-53
2022/11/08 10:29:51;;;;;;;10.43;4.40;;;14.90;99.90;;;;;;5033220;28;20040;-60
2022/11/08 10:32:37;;;;;;;7.85;4.60;;;14.80;99.90;;;;;;5050110;28;20059;-54
2022/11/08 10:35:43;;;;;;;7.97;3.67;;;14.80;99.90;;;;;;5051595;28;20118;-54
2022/11/08 10:38:45;;;;;;;12.20;4.05;;;14.80;99.90;;;;;;5025306;28;20044;-57
2022/11/08 10:41:40;;;;;;;8.15;4.07;;;14.80;99.90;;;;;;5041269;28;20071;-59
2022/11/08 10:44:27;;;;;;;7.93;3.85;;;14.80;99.90;;;;;;5046613;28;20112;-55
2022/11/08 10:47:26;;;;;;;12.07;4.63;;;14.90;99.90;;;;;;5049259;28;20096;-56
2022/11/08 10:50:14;;;;;;;20.98;4.35;;;15.10;99.90;;;;;;5036402;28;20025;-56
2022/11/08 10:53:02;;;;;;;9.75;3.67;;;15.20;99.40;;;;;;5031249;28;20047;-60
2022/11/08 10:56:02;;;;;;;8.52;4.00;;;15.30;99.40;;;;;;5049653;28;20036;-52
2022/11/08 10:58:48;;;;;;;8.82;3.85;;;15.40;99.10;;;;;;5049679;28;20520;-57
2022/11/08 11:01:34;;;;;;;9.90;3.38;;;15.50;98.60;;;;;;5023110;28;20499;-57
2022/11/08 11:04:33;;;;;;;8.60;3.85;;;15.50;98.10;;;;;;5051261;28;20060;-58
2022/11/08 11:07:33;;;;;;;7.28;3.55;;;15.50;98.10;;;;;;5050407;28;20386;-58
2022/11/08 11:10:25;;;;;;;3.50;2.50;;;15.50;97.40;;;;;;5050420;28;20033;-58
2022/11/08 11:13:25;;;;;;;4.45;2.97;;;15.50;97.00;;;;;;5036276;28;20103;-59
2022/11/08 11:16:13;;;;;;;8.57;3.35;;;15.60;97.00;;;;;;5030257;28;20405;-61
2022/11/08 11:19:03;;;;;;;4.95;3.10;;;15.60;97.00;;;;;;5032118;28;20031;-60
2022/11/08 11:22:08;;;;;;;7.20;3.28;;;15.70;97.30;;;;;;5049880;28;20072;-62
2022/11/08 11:24:55;;;;;;;8.95;3.35;;;15.60;96.90;;;;;;5051371;28;20091;-58
2022/11/08 11:27:53;;;;;;;7.80;3.15;;;15.70;97.10;;;;;;5051810;28;20028;-61
2022/11/08 11:30:46;;;;;;;10.30;3.92;;;15.90;96.90;;;;;;5065141;28;20040;-58
2022/11/08 11:33:41;;;;;;;19.27;5.80;;;16.00;96.70;;;;;;5062531;28;20028;-55
2022/11/08 11:36:29;;;;;;;6.07;3.00;;;16.00;96.60;;;;;;5062510;28;20029;-61
2022/11/08 11:39:30;;;;;;;7.13;2.97;;;16.00;96.10;;;;;;5035029;28;20036;-57
2022/11/08 11:42:23;;;;;;;10.52;3.63;;;16.00;96.30;;;;;;5056297;28;20021;-59
2022/11/08 11:45:20;;;;;;;4.97;3.50;;;16.10;96.40;;;;;;5069711;28;20040;-60
2022/11/08 11:48:15;;;;;;;10.88;3.53;;;16.10;96.20;;;;;;5029912;28;20061;-59
2022/11/08 11:51:01;;;;;;;7.27;2.97;;;16.10;96.00;;;;;;5030096;28;20040;-56
2022/11/08 11:53:47;;;;;;;5.95;3.13;;;16.10;95.50;;;;;;5030044;28;20102;-59
2022/11/08 11:57:12;;;;;;;11.77;3.67;;;16.10;95.40;;;;;;5029449;28;20546;-58
2022/11/08 12:00:10;;;;;;;6.67;3.00;;;16.20;95.50;;;;;;4992527;28;20476;-62
2022/11/08 12:03:19;;;;;;;6.70;2.72;;;16.20;95.40;;;;;;5029236;28;20261;-58
2022/11/08 12:06:14;;;;;;;5.60;2.72;;;16.30;94.70;;;;;;5032052;28;20025;-59
2022/11/08 12:09:19;;;;;;;6.10;2.80;;;16.30;94.80;;;;;;5049352;28;20028;-60
2022/11/08 12:12:08;;;;;;;11.32;3.15;;;16.40;94.80;;;;;;5048071;28;20025;-58
2022/11/08 12:15:01;;;;;;;6.82;3.10;;;16.50;94.50;;;;;;5047132;28;20013;-59
2022/11/08 12:17:53;;;;;;;10.13;3.53;;;16.60;93.40;;;;;;5034374;28;20116;-62
2022/11/08 12:20:44;;;;;;;10.00;3.33;;;16.50;93.40;;;;;;5048403;28;20071;-59
2022/11/08 12:23:37;;;;;;;10.10;3.72;;;16.60;93.30;;;;;;5029417;28;20508;-58
2022/11/08 12:26:41;;;;;;;6.50;2.80;;;16.60;93.00;;;;;;5035417;28;20033;-60
2022/11/08 12:29:50;;;;;;;6.78;3.30;;;16.60;92.90;;;;;;5034461;28;20493;-58
2022/11/08 12:32:51;;;;;;;8.43;3.20;;;16.70;92.80;;;;;;5036431;28;20028;-58
2022/11/08 12:36:15;;;;;;;3.95;3.20;;;16.80;92.50;;;;;;5047941;28;20056;-59
2022/11/08 12:39:39;;;;;;;8.23;3.58;;;16.80;92.50;;;;;;5028587;28;20126;-59
2022/11/08 12:42:46;;;;;;;8.55;3.20;;;16.90;92.40;;;;;;5014708;28;20096;-59
2022/11/08 12:45:44;;;;;;;5.20;3.13;;;16.90;92.40;;;;;;5033356;28;20252;-60
2022/11/08 12:48:55;;;;;;;5.22;2.70;;;16.90;92.30;;;;;;5034457;28;20721;-63
2022/11/08 12:52:07;;;;;;;4.97;2.72;;;17.10;92.10;;;;;;5048418;28;20108;-60
2022/11/08 12:54:59;;;;;;;7.93;3.75;;;17.10;92.10;;;;;;5048136;28;20436;-61
2022/11/08 12:57:45;;;;;;;4.63;2.83;;;17.20;91.90;;;;;;5048865;28;20025;-63
2022/11/08 13:00:33;;;;;;;4.82;3.33;;;17.30;91.90;;;;;;5033838;28;20536;-60
2022/11/08 13:03:31;;;;;;;5.20;2.78;;;17.30;91.80;;;;;;5047911;28;20025;-62
2022/11/08 13:06:41;;;;;;;15.02;3.80;;;17.40;91.90;;;;;;5048301;28;20025;-58
2022/11/08 13:09:33;;;;;;;13.20;3.58;;;17.40;91.50;;;;;;5052352;28;20031;-58
2022/11/08 13:12:31;;;;;;;7.15;3.30;;;17.40;91.60;;;;;;5035099;28;20025;-60
2022/11/08 13:15:22;;;;;;;6.35;2.92;;;17.50;91.20;;;;;;5034672;28;20083;-58
2022/11/08 13:18:08;;;;;;;9.27;2.90;;;17.60;91.50;;;;;;5033148;28;20516;-59
2022/11/08 13:20:55;;;;;;;6.95;3.13;;;17.80;91.30;;;;;;5024878;28;20037;-61
2022/11/08 13:23:41;;;;;;;6.20;3.10;;;17.90;91.30;;;;;;5051582;28;20030;-63
2022/11/08 13:26:29;;;;;;;11.10;2.90;;;18.10;90.80;;;;;;5051242;28;20052;-63
2022/11/08 13:29:18;;;;;;;7.22;3.20;;;18.30;90.70;;;;;;5051082;28;20140;-56
2022/11/08 13:32:18;;;;;;;6.90;3.15;;;18.50;90.80;;;;;;5051609;28;20053;-59
2022/11/08 13:35:14;;;;;;;5.38;2.85;;;18.50;90.10;;;;;;5036415;28;20225;-58
2022/11/08 13:38:17;;;;;;;8.60;3.40;;;18.30;90.20;;;;;;5051322;28;20429;-60
2022/11/08 13:41:13;;;;;;;6.38;3.45;;;18.20;90.30;;;;;;5031508;28;20025;-57
2022/11/08 13:43:59;;;;;;;6.63;3.20;;;18.20;90.60;;;;;;5034727;28;20029;-59
2022/11/08 13:46:46;;;;;;;7.32;3.20;;;18.20;90.60;;;;;;5050982;28;20025;-61
2022/11/08 13:49:34;;;;;;;7.47;2.78;;;18.40;90.10;;;;;;5051949;28;20408;-58
2022/11/08 13:53:00;;;;;;;11.65;3.40;;;18.40;90.00;;;;;;5051553;28;20033;-57
2022/11/08 13:55:47;;;;;;;5.57;2.63;;;18.10;89.80;;;;;;5050623;28;20449;-57
2022/11/08 13:58:38;;;;;;;6.88;2.58;;;17.80;90.30;;;;;;5050840;28;20260;-59
2022/11/08 14:01:24;;;;;;;12.23;4.65;;;17.60;90.50;;;;;;5029883;28;20552;-60
2022/11/08 14:04:36;;;;;;;8.40;3.60;;;17.40;91.00;;;;;;5032528;28;20043;-61
2022/11/08 14:07:49;;;;;;;18.13;4.47;;;17.70;90.40;;;;;;5051215;28;20029;-60
2022/11/08 14:10:46;;;;;;;8.93;3.53;;;18.50;88.60;;;;;;5036448;28;20377;-60
2022/11/08 14:13:44;;;;;;;9.32;3.20;;;19.10;86.70;;;;;;5026551;28;20025;-60
2022/11/08 14:16:53;;;;;;;9.63;3.58;;;19.40;85.50;;;;;;5037231;28;20025;-60
2022/11/08 14:19:42;;;;;;;12.48;4.13;;;19.40;85.40;;;;;;5050552;28;20032;-59
2022/11/08 14:22:29;;;;;;;9.48;3.80;;;19.80;84.40;;;;;;5049610;28;20099;-60
2022/11/08 14:25:23;;;;;;;12.95;3.45;;;19.60;84.10;;;;;;5049850;28;20067;-61
2022/11/08 14:28:32;;;;;;;10.80;4.80;;;19.40;84.80;;;;;;5050423;28;20139;-61
2022/11/08 14:31:24;;;;;;;7.10;3.40;;;18.80;86.10;;;;;;5030425;28;20025;-60
2022/11/08 14:34:33;;;;;;;26.92;11.18;;;18.30;87.30;;;;;;5047717;28;20024;-61
2022/11/08 14:37:28;;;;;;;12.07;4.55;;;18.10;88.40;;;;;;5050596;28;20025;-61
2022/11/08 14:40:27;;;;;;;17.85;5.53;;;17.70;89.30;;;;;;5036762;28;20144;-60
2022/11/08 14:43:13;;;;;;;30.50;6.45;;;17.50;90.10;;;;;;5050184;28;20025;-61
2022/11/08 14:46:11;;;;;;;22.95;6.05;;;17.30;90.30;;;;;;5035599;28;20036;-61
2022/11/08 14:49:06;;;;;;;20.95;8.05;;;17.20;90.40;;;;;;5050404;28;20029;-62
2022/11/08 14:52:03;;;;;;;;;;;17.00;90.40;;;;;;5035092;28;20021;-58
2022/11/08 14:55:00;;;;;;;9.60;5.60;;;16.80;90.60;;;;;;5017170;28;19955;-61
2022/11/08 14:57:46;;;;;;;11.65;5.65;;;16.80;90.80;;;;;;5043256;28;20021;-58
2022/11/08 15:00:35;;;;;;;17.52;5.32;;;16.70;90.90;;;;;;5022483;28;20148;-60
2022/11/08 15:03:27;;;;;;;11.55;5.13;;;16.70;91.00;;;;;;5050543;28;20048;-62